Jump to content


COMPASS FLIGHT CP5745 FLOWN ON 02-05-2018 BY CAPTAIN DEREK ROGY

Pilot StatsCaptain Derek Rogy (LDP86) • 1,587.9 total hours • 833 total flights [View Logbook]
FLIGHT DETAILS
StatusReceived and approved on 2018-02-05 at 16:02:32
Origin AirportSalt Lake City Intl (KSLC) • Salt Lake City, Utah, United States (4,226 feet MSL)
Filed Flight PlanFLIGHT PLANNER OFFLINE
Destination AirportTri-Cities (KPSC) • Pasco, Washington, United States (407 feet MSL)
Alternate AirportNone Filed
AirlineCompass
AircraftEmbraer E-175 (E75 / E175)
FS Aircraft UsedEmbraer 175 Delta Connection
Cruising AltitudeFL280
Distance Flown452 nautical miles
Passengers Onboard42 passengers (50.00% full)
DEPARTURE DETAILS
Time Out09:31:50
Taxi Data68,030 lbs total with 11,415 lbs of fuel onboard
Takeoff Data09:49:32 (18 minutes after leaving gate/ramp) • 67,568 lbs total • 5° pitch at 152 knots
Departure METARKSLC 051554Z 34009KT 10SM SCT060 BKN080 BKN150 11/01 A3006 RMK AO2 SLP160 T01060011
ARRIVAL DETAILS
Landing Data10:16:38 • 62,386 lbs total • 5° pitch doing 124 knots at a rate of -58.44 feet/minute with 5,673 lbs of fuel onboard
Time In10:19:41 (3 minutes after landing)
Ramp Weight62,288 lbs total
Total Fuel Used5,742 lbs
Total Block Time01:47:55 (1.8 hours) while 21 minutes were spent on the ground
Arrival METARKPSC 052053Z 26014G19KT 10SM FEW100 16/02 A3005 RMK AO2 SLP176 T01560017 58010
MISCELLANEOUS DETAILS
LiveDISPATCH Version4.8.3.1
FS Version
FSUIPC Version5.12
OS VersionWindows 7 32-bit
Screen Resolution1920 x 1200
Pilot's CommentsNo Comments Reported
FLIGHT MAP